createdAt,value
2023-04-04T00:01:21.343Z,13.30
2023-04-04T00:03:51.641Z,8.40
2023-04-04T00:06:19.096Z,13.10
2023-04-04T00:08:45.524Z,7.28
2023-04-04T00:11:11.934Z,11.63
2023-04-04T00:13:38.839Z,22.20
2023-04-04T00:16:06.000Z,13.98
2023-04-04T00:18:32.630Z,13.02
2023-04-04T00:20:59.432Z,12.90
2023-04-04T00:23:25.817Z,18.20
2023-04-04T00:25:52.835Z,27.13
2023-04-04T00:28:20.527Z,32.40
2023-04-04T00:30:47.332Z,18.58
2023-04-04T00:33:17.095Z,15.77
2023-04-04T00:35:43.616Z,11.57
2023-04-04T00:38:10.075Z,12.68
2023-04-04T00:40:43.942Z,14.80
2023-04-04T00:43:10.436Z,25.23
2023-04-04T00:45:36.944Z,21.88
2023-04-04T00:48:03.490Z,17.58
2023-04-04T00:50:32.063Z,14.95
2023-04-04T00:52:58.800Z,33.50
2023-04-04T00:55:25.730Z,41.03
2023-04-04T00:57:52.345Z,31.35
2023-04-04T01:00:18.965Z,34.88
2023-04-04T01:02:45.436Z,35.17
2023-04-04T01:05:12.500Z,26.08
2023-04-04T01:07:39.569Z,13.65
2023-04-04T01:10:06.530Z,10.30
2023-04-04T01:12:32.960Z,7.18
2023-04-04T01:14:59.336Z,8.75
2023-04-04T01:17:27.114Z,10.43
2023-04-04T01:20:01.204Z,7.28
2023-04-04T01:22:29.697Z,12.60
2023-04-04T01:24:57.263Z,16.60
2023-04-04T01:27:23.787Z,19.58
2023-04-04T01:29:50.205Z,12.43
2023-04-04T01:32:20.887Z,12.40
2023-04-04T01:34:53.902Z,8.20
2023-04-04T01:37:21.266Z,11.30
2023-04-04T01:40:08.658Z,11.68
2023-04-04T01:42:36.056Z,8.18
2023-04-04T01:45:03.027Z,8.50
2023-04-04T01:47:31.014Z,6.50
2023-04-04T01:49:57.420Z,8.88
2023-04-04T01:52:23.788Z,10.07
2023-04-04T01:54:50.599Z,9.85
2023-04-04T01:57:17.395Z,10.65
2023-04-04T01:59:43.849Z,13.32
2023-04-04T02:02:12.878Z,11.20
2023-04-04T02:04:39.427Z,15.32
2023-04-04T02:07:06.411Z,11.27
2023-04-04T02:09:33.479Z,10.45
2023-04-04T02:11:59.927Z,7.07
2023-04-04T02:14:26.467Z,7.15
2023-04-04T02:16:52.939Z,5.60
2023-04-04T02:19:19.328Z,8.82
2023-04-04T02:21:45.844Z,4.97
2023-04-04T02:24:12.586Z,8.05
2023-04-04T02:26:39.076Z,6.63
2023-04-04T02:29:06.231Z,6.22
2023-04-04T02:31:32.695Z,8.85
2023-04-04T02:33:59.166Z,14.68
2023-04-04T02:36:25.618Z,11.32
2023-04-04T02:38:51.999Z,14.98
2023-04-04T02:41:18.399Z,9.88
2023-04-04T02:43:44.816Z,14.63
2023-04-04T02:46:20.969Z,8.35
2023-04-04T02:48:48.549Z,12.10
2023-04-04T02:51:14.924Z,15.10
2023-04-04T02:53:41.331Z,8.38
2023-04-04T02:56:07.775Z,7.20
2023-04-04T02:58:34.805Z,10.77
2023-04-04T03:01:01.281Z,10.02
2023-04-04T03:03:27.953Z,9.73
2023-04-04T03:05:54.591Z,7.95
2023-04-04T03:08:20.967Z,9.73
2023-04-04T03:10:47.353Z,9.02
2023-04-04T03:13:13.787Z,7.20
2023-04-04T03:15:43.777Z,14.27
2023-04-04T03:18:13.913Z,10.43
2023-04-04T03:20:40.482Z,8.68
2023-04-04T03:23:07.050Z,9.63
2023-04-04T03:25:33.454Z,8.90
2023-04-04T03:28:08.682Z,9.32
2023-04-04T03:30:35.212Z,8.75
2023-04-04T03:33:09.845Z,11.75
2023-04-04T03:35:40.045Z,13.48
2023-04-04T03:38:06.988Z,7.90
2023-04-04T03:40:33.453Z,11.48
2023-04-04T03:42:59.876Z,7.80
2023-04-04T03:45:26.252Z,9.00
2023-04-04T03:47:52.793Z,7.68
2023-04-04T03:50:19.306Z,8.15
2023-04-04T03:52:45.685Z,8.27
2023-04-04T03:55:12.475Z,7.80
2023-04-04T03:57:38.858Z,8.00
2023-04-04T04:00:05.896Z,10.73
2023-04-04T04:02:32.374Z,9.35
2023-04-04T04:04:58.785Z,11.07
2023-04-04T04:07:25.513Z,11.00
2023-04-04T04:09:51.914Z,7.65
2023-04-04T04:12:18.294Z,8.55
2023-04-04T04:14:44.684Z,10.70
2023-04-04T04:17:11.175Z,12.10
2023-04-04T04:19:37.557Z,9.32
2023-04-04T04:22:03.936Z,7.90
2023-04-04T04:24:30.381Z,10.55
2023-04-04T04:26:56.765Z,13.52
2023-04-04T04:29:23.359Z,14.20
2023-04-04T04:31:49.825Z,12.18
2023-04-04T04:34:16.262Z,11.13
2023-04-04T04:36:42.635Z,8.23
2023-04-04T04:39:09.086Z,11.80
2023-04-04T04:41:36.634Z,10.82
2023-04-04T04:44:03.340Z,9.90
2023-04-04T04:46:29.946Z,8.50
2023-04-04T04:48:56.630Z,14.05
2023-04-04T04:51:23.336Z,9.30
2023-04-04T04:53:49.714Z,9.70
2023-04-04T04:56:16.556Z,16.55
2023-04-04T04:58:45.015Z,14.93
2023-04-04T05:01:11.857Z,36.03
2023-04-04T05:03:38.323Z,78.60
2023-04-04T05:06:04.889Z,61.22
2023-04-04T05:08:31.271Z,34.03
2023-04-04T05:10:57.859Z,21.95
2023-04-04T05:13:24.323Z,14.38
2023-04-04T05:15:50.898Z,15.77
2023-04-04T05:18:17.327Z,12.13
2023-04-04T05:20:43.858Z,12.48
2023-04-04T05:23:10.235Z,14.70
2023-04-04T05:25:36.646Z,11.02
2023-04-04T05:28:03.903Z,10.43
2023-04-04T05:30:30.330Z,17.67
2023-04-04T05:32:56.745Z,21.75
2023-04-04T05:35:23.174Z,30.27
2023-04-04T05:37:49.634Z,25.65
2023-04-04T05:40:16.164Z,45.63
2023-04-04T05:42:42.709Z,34.65
2023-04-04T05:45:09.686Z,25.85
2023-04-04T05:47:36.169Z,18.52
2023-04-04T05:50:02.734Z,20.70
2023-04-04T05:52:29.114Z,17.33
2023-04-04T05:54:55.878Z,14.90
2023-04-04T05:57:23.450Z,13.50
2023-04-04T05:59:50.622Z,16.45
2023-04-04T06:02:17.393Z,23.05
2023-04-04T06:04:45.331Z,21.23
2023-04-04T06:07:11.718Z,24.88
2023-04-04T06:09:38.389Z,23.70
2023-04-04T06:12:04.816Z,24.38
2023-04-04T06:14:31.268Z,23.17
2023-04-04T06:16:58.318Z,20.20
2023-04-04T06:19:24.699Z,27.40
2023-04-04T06:21:51.320Z,15.10
2023-04-04T06:24:17.690Z,12.95
2023-04-04T06:26:45.028Z,19.15
2023-04-04T06:29:11.543Z,21.02
2023-04-04T06:31:38.125Z,19.27
2023-04-04T06:34:04.568Z,15.07
2023-04-04T06:36:31.105Z,20.80
2023-04-04T06:38:57.678Z,19.30
2023-04-04T06:41:24.048Z,13.75
2023-04-04T06:43:50.514Z,15.88
2023-04-04T06:46:17.009Z,15.30
2023-04-04T06:48:43.454Z,11.10
2023-04-04T06:51:09.860Z,11.52
2023-04-04T06:53:36.405Z,10.40
2023-04-04T06:56:03.203Z,10.70
2023-04-04T06:58:29.600Z,13.75
2023-04-04T07:00:57.065Z,10.02
2023-04-04T07:03:24.328Z,11.50
2023-04-04T07:05:50.746Z,13.43
2023-04-04T07:08:17.132Z,12.18
2023-04-04T07:10:43.953Z,18.63
2023-04-04T07:13:11.147Z,15.30
2023-04-04T07:15:37.619Z,18.50
2023-04-04T07:18:04.082Z,17.45
2023-04-04T07:20:30.497Z,16.92
2023-04-04T07:22:56.921Z,13.25
2023-04-04T07:25:23.312Z,10.02
2023-04-04T07:27:53.069Z,9.90
2023-04-04T07:30:26.267Z,11.30
2023-04-04T07:33:02.695Z,13.23
2023-04-04T07:35:29.204Z,12.82
2023-04-04T07:37:55.568Z,15.50
2023-04-04T07:40:22.035Z,8.80
2023-04-04T07:42:51.729Z,7.43
2023-04-04T07:45:18.297Z,10.85
2023-04-04T07:47:45.163Z,8.52
2023-04-04T07:50:12.566Z,12.20
2023-04-04T07:52:39.161Z,10.98
2023-04-04T07:55:07.346Z,11.77
2023-04-04T07:57:37.417Z,7.18
2023-04-04T08:00:05.714Z,11.45
2023-04-04T08:02:32.187Z,7.03
2023-04-04T08:04:58.603Z,7.65
2023-04-04T08:07:25.273Z,10.63
2023-04-04T08:09:51.706Z,12.48
2023-04-04T08:12:18.133Z,7.65
2023-04-04T08:14:44.564Z,4.40
2023-04-04T08:17:12.134Z,10.20
2023-04-04T08:19:38.502Z,12.98
2023-04-04T08:22:05.337Z,9.93
2023-04-04T08:24:31.713Z,14.65
2023-04-04T08:27:05.288Z,7.35
2023-04-04T08:29:32.710Z,22.35
2023-04-04T08:31:59.438Z,7.78
2023-04-04T08:34:25.993Z,5.20
2023-04-04T08:36:52.888Z,3.80
2023-04-04T08:39:19.246Z,3.83
2023-04-04T08:41:45.946Z,7.20
2023-04-04T08:44:18.004Z,4.38
2023-04-04T08:46:45.489Z,5.53
2023-04-04T08:49:13.722Z,4.85
2023-04-04T08:51:44.574Z,5.07
2023-04-04T08:54:13.016Z,4.93
2023-04-04T08:56:39.405Z,5.72
2023-04-04T08:59:06.053Z,5.68
2023-04-04T09:01:33.216Z,5.80
2023-04-04T09:04:00.477Z,6.15
2023-04-04T09:06:27.702Z,6.13
2023-04-04T09:08:54.574Z,6.68
2023-04-04T09:11:22.324Z,3.92
2023-04-04T09:13:50.765Z,5.35
2023-04-04T09:16:17.436Z,8.32
2023-04-04T09:18:44.022Z,5.00
2023-04-04T09:21:11.850Z,5.53
2023-04-04T09:23:38.595Z,5.43
2023-04-04T09:26:05.366Z,6.30
2023-04-04T09:28:32.561Z,3.92
2023-04-04T09:31:05.535Z,4.20
2023-04-04T09:33:33.413Z,5.88
2023-04-04T09:36:12.549Z,3.80
2023-04-04T09:38:40.870Z,5.70
2023-04-04T09:41:09.710Z,5.50
2023-04-04T09:43:37.271Z,4.75
2023-04-04T09:46:04.126Z,5.75
2023-04-04T09:48:32.506Z,9.52
2023-04-04T09:50:59.667Z,5.15
2023-04-04T09:53:26.269Z,5.18
2023-04-04T09:55:54.563Z,5.25
2023-04-04T09:58:24.717Z,5.45
2023-04-04T10:00:53.282Z,5.13
2023-04-04T10:03:22.202Z,3.03
2023-04-04T10:05:54.296Z,7.63
2023-04-04T10:08:24.176Z,5.78
2023-04-04T10:11:06.506Z,4.63
2023-04-04T10:13:40.476Z,4.65
2023-04-04T10:16:07.267Z,3.17
2023-04-04T10:18:35.403Z,2.97
2023-04-04T10:21:14.651Z,7.43
2023-04-04T10:23:43.740Z,6.82
2023-04-04T10:26:10.837Z,6.35
2023-04-04T10:28:37.658Z,5.13
2023-04-04T10:31:22.040Z,17.10
2023-04-04T10:34:00.791Z,12.27
2023-04-04T10:36:31.431Z,7.43
2023-04-04T10:39:04.963Z,6.07
2023-04-04T10:41:32.416Z,11.52
2023-04-04T10:44:01.299Z,3.75
2023-04-04T10:46:31.696Z,8.50
2023-04-04T10:49:00.176Z,5.53
2023-04-04T10:51:26.979Z,7.63
2023-04-04T10:53:53.991Z,3.95
2023-04-04T10:56:21.435Z,7.80
2023-04-04T10:58:49.108Z,3.97
2023-04-04T11:01:20.838Z,9.90
2023-04-04T11:04:20.084Z,5.78
2023-04-04T11:07:16.107Z,11.60
2023-04-04T11:09:55.396Z,5.03
2023-04-04T11:12:31.149Z,7.53
2023-04-04T11:15:00.535Z,9.90
2023-04-04T11:17:48.657Z,3.20
2023-04-04T11:20:17.052Z,5.78
2023-04-04T11:22:43.760Z,4.60
2023-04-04T11:25:27.072Z,5.22
2023-04-04T11:27:58.056Z,3.45
2023-04-04T11:30:30.364Z,4.75
2023-04-04T11:33:07.100Z,7.50
2023-04-04T11:35:38.415Z,7.18
2023-04-04T11:38:12.817Z,5.60
2023-04-04T11:40:41.319Z,5.13
2023-04-04T11:43:09.843Z,3.55
2023-04-04T11:45:37.425Z,3.42
2023-04-04T11:48:06.028Z,8.60
2023-04-04T11:50:40.027Z,4.63
2023-04-04T11:53:10.281Z,5.05
2023-04-04T11:55:43.802Z,6.00
2023-04-04T11:58:13.146Z,6.22
2023-04-04T12:00:39.991Z,4.93
2023-04-04T12:03:10.740Z,5.93
2023-04-04T12:05:38.636Z,3.35
2023-04-04T12:08:07.508Z,3.67
2023-04-04T12:10:34.803Z,3.33
2023-04-04T12:13:02.589Z,3.60
2023-04-04T12:15:29.791Z,4.93
2023-04-04T12:17:56.284Z,3.33
2023-04-04T12:20:24.250Z,3.50
2023-04-04T12:22:54.212Z,3.83
2023-04-04T12:25:22.121Z,5.78
2023-04-04T12:27:48.993Z,3.05
2023-04-04T12:30:16.069Z,3.90
2023-04-04T12:32:44.024Z,5.55
2023-04-04T12:35:11.630Z,5.03
2023-04-04T12:37:38.119Z,4.00
2023-04-04T12:40:04.972Z,3.25
2023-04-04T12:42:32.499Z,2.65
2023-04-04T12:45:02.161Z,3.63
2023-04-04T12:47:31.123Z,4.80
2023-04-04T12:49:57.629Z,5.32
2023-04-04T12:52:29.659Z,5.57
2023-04-04T12:57:34.654Z,4.28
2023-04-04T13:00:02.197Z,3.90
2023-04-04T13:02:29.468Z,3.70
2023-04-04T13:04:56.378Z,4.65
2023-04-04T13:07:25.437Z,2.80
2023-04-04T13:09:57.814Z,4.63
2023-04-04T13:12:24.879Z,4.45
2023-04-04T13:15:01.741Z,2.60
2023-04-04T13:17:43.074Z,3.53
2023-04-04T13:20:10.496Z,19.17
2023-04-04T13:22:37.784Z,6.97
2023-04-04T13:25:05.795Z,7.38
2023-04-04T13:27:32.239Z,3.30
2023-04-04T13:29:58.624Z,4.57
2023-04-04T13:32:25.397Z,3.75
2023-04-04T13:34:51.912Z,5.47
2023-04-04T13:37:18.658Z,4.90
2023-04-04T13:39:45.028Z,3.67
2023-04-04T13:42:11.416Z,4.55
2023-04-04T13:44:37.787Z,6.28
2023-04-04T13:47:04.204Z,5.10
2023-04-04T13:49:30.645Z,4.05
2023-04-04T13:51:57.041Z,3.10
2023-04-04T13:54:23.419Z,5.22
2023-04-04T13:56:49.806Z,4.13
2023-04-04T13:59:16.292Z,4.68
2023-04-04T14:01:42.805Z,3.83
2023-04-04T14:04:22.980Z,3.60
2023-04-04T14:06:50.428Z,4.38
2023-04-04T14:09:16.802Z,4.68
2023-04-04T14:11:43.424Z,3.50
2023-04-04T14:14:09.826Z,8.48
2023-04-04T14:16:36.434Z,3.90
2023-04-04T14:19:03.001Z,4.78
2023-04-04T14:21:29.385Z,3.85
2023-04-04T14:23:55.787Z,4.03
2023-04-04T14:26:22.234Z,4.05
2023-04-04T14:28:48.792Z,2.88
2023-04-04T14:31:15.406Z,4.03
2023-04-04T14:33:41.998Z,3.88
2023-04-04T14:36:08.410Z,5.50
2023-04-04T14:38:34.835Z,6.82
2023-04-04T14:41:01.894Z,4.18
2023-04-04T14:43:28.325Z,3.55
2023-04-04T14:45:54.808Z,3.35
2023-04-04T14:48:21.227Z,5.45
2023-04-04T14:50:47.644Z,3.65
2023-04-04T14:53:14.167Z,4.22
2023-04-04T14:55:40.842Z,5.00
2023-04-04T14:58:08.179Z,4.15
2023-04-04T15:00:34.616Z,4.28
2023-04-04T15:03:01.539Z,7.10
2023-04-04T15:05:28.171Z,7.72
2023-04-04T15:07:55.516Z,4.13
2023-04-04T15:10:21.937Z,5.22
2023-04-04T15:12:48.409Z,6.90
2023-04-04T15:15:15.585Z,6.95
2023-04-04T15:17:42.196Z,4.85
2023-04-04T15:20:09.458Z,4.15
2023-04-04T15:22:36.267Z,5.13
2023-04-04T15:25:02.698Z,4.38
2023-04-04T15:27:29.190Z,5.93
2023-04-04T15:29:55.828Z,5.47
2023-04-04T15:32:22.232Z,4.32
2023-04-04T15:34:48.640Z,4.82
2023-04-04T15:37:15.725Z,4.15
2023-04-04T15:39:51.838Z,5.03
2023-04-04T15:42:19.692Z,3.65
2023-04-04T15:44:46.540Z,4.15
2023-04-04T15:47:13.089Z,4.22
2023-04-04T15:49:39.515Z,6.22
2023-04-04T15:52:05.964Z,5.88
2023-04-04T15:54:32.356Z,6.30
2023-04-04T15:56:58.730Z,3.83
2023-04-04T15:59:25.220Z,4.43
2023-04-04T16:01:51.812Z,3.75
2023-04-04T16:04:18.220Z,4.75
2023-04-04T16:06:44.612Z,4.03
2023-04-04T16:09:11.381Z,5.75
2023-04-04T16:11:37.924Z,3.15
2023-04-04T16:14:05.913Z,4.90
2023-04-04T16:16:32.332Z,4.35
2023-04-04T16:18:58.709Z,4.15
2023-04-04T16:21:27.997Z,5.95
2023-04-04T16:23:54.708Z,6.15
2023-04-04T16:26:21.951Z,7.00
2023-04-04T16:28:48.348Z,6.25
2023-04-04T16:31:15.340Z,6.47
2023-04-04T16:33:42.191Z,8.55
2023-04-04T16:36:08.682Z,5.60
2023-04-04T16:38:35.083Z,5.28
2023-04-04T16:41:01.862Z,4.97
2023-04-04T16:43:28.283Z,3.63
2023-04-04T16:45:54.663Z,4.43
2023-04-04T16:48:21.067Z,4.13
2023-04-04T16:50:47.545Z,5.63
2023-04-04T16:53:13.949Z,5.28
2023-04-04T16:55:40.589Z,10.77
2023-04-04T16:58:06.968Z,6.60
2023-04-04T17:00:33.444Z,5.40
2023-04-04T17:03:00.008Z,6.20
2023-04-04T17:05:26.494Z,5.10
2023-04-04T17:07:52.876Z,5.53
2023-04-04T17:10:19.408Z,12.20
2023-04-04T17:12:45.838Z,4.97
2023-04-04T17:15:12.276Z,3.92
2023-04-04T17:17:38.669Z,7.03
2023-04-04T17:20:05.924Z,7.15
2023-04-04T17:22:32.320Z,3.45
2023-04-04T17:24:58.735Z,5.30
2023-04-04T17:27:25.276Z,15.48
2023-04-04T17:29:52.096Z,5.82
2023-04-04T17:32:19.278Z,4.00
2023-04-04T17:34:46.015Z,3.80
2023-04-04T17:37:13.181Z,4.78
2023-04-04T17:39:39.575Z,5.68
2023-04-04T17:42:05.970Z,3.92
2023-04-04T17:44:32.378Z,20.77
2023-04-04T17:46:59.606Z,16.50
2023-04-04T17:49:26.257Z,11.40
2023-04-04T17:51:53.461Z,17.48
2023-04-04T17:54:20.700Z,12.23
2023-04-04T17:56:47.555Z,7.72
2023-04-04T17:59:14.638Z,4.75
2023-04-04T18:01:41.342Z,7.65
2023-04-04T18:04:08.222Z,46.55
2023-04-04T18:06:34.621Z,40.03
2023-04-04T18:09:01.020Z,17.63
2023-04-04T18:11:27.875Z,11.35
2023-04-04T18:13:54.323Z,8.25
2023-04-04T18:16:20.832Z,8.90
2023-04-04T18:18:47.256Z,7.22
2023-04-04T18:21:13.707Z,7.57
2023-04-04T18:23:40.505Z,11.00
2023-04-04T18:26:07.256Z,9.98
2023-04-04T18:28:33.634Z,13.40
2023-04-04T18:31:00.320Z,15.93
2023-04-04T18:33:27.879Z,14.75
2023-04-04T18:35:54.595Z,11.68
2023-04-04T18:38:21.195Z,9.18
2023-04-04T18:40:47.753Z,13.10
2023-04-04T18:43:14.212Z,12.27
2023-04-04T18:45:41.336Z,16.02
2023-04-04T18:48:08.397Z,10.95
2023-04-04T18:50:35.319Z,8.25
2023-04-04T18:53:01.773Z,8.35
2023-04-04T18:55:28.167Z,10.00
2023-04-04T18:57:54.775Z,12.40
2023-04-04T19:00:21.495Z,9.85
2023-04-04T19:02:48.125Z,10.98
2023-04-04T19:05:15.365Z,11.40
2023-04-04T19:07:42.266Z,11.73
2023-04-04T19:10:09.172Z,10.32
2023-04-04T19:12:35.715Z,13.00
2023-04-04T19:15:02.514Z,10.20
2023-04-04T19:17:29.604Z,9.40
2023-04-04T19:19:57.405Z,10.30
2023-04-04T19:22:23.843Z,11.15
2023-04-04T19:24:50.237Z,10.77
2023-04-04T19:27:16.658Z,10.23
2023-04-04T19:29:43.108Z,9.25
2023-04-04T19:32:16.685Z,8.38
2023-04-04T19:34:43.731Z,6.68
2023-04-04T19:37:12.143Z,9.10
2023-04-04T19:39:39.247Z,12.75
2023-04-04T19:42:07.130Z,12.30
2023-04-04T19:44:33.832Z,11.07
2023-04-04T19:47:01.006Z,11.13
2023-04-04T19:49:33.404Z,8.63
2023-04-04T19:52:01.388Z,10.18
2023-04-04T19:54:30.679Z,10.43
2023-04-04T19:57:03.433Z,8.13
2023-04-04T19:59:51.292Z,10.45
2023-04-04T20:02:26.948Z,12.68
2023-04-04T20:04:54.085Z,14.68
2023-04-04T20:07:20.756Z,12.07
2023-04-04T20:09:47.702Z,8.77
2023-04-04T20:12:16.076Z,10.00
2023-04-04T20:14:42.499Z,11.95
2023-04-04T20:17:09.618Z,10.82
2023-04-04T20:19:36.497Z,9.20
2023-04-04T20:22:04.888Z,10.80
2023-04-04T20:24:31.322Z,9.23
2023-04-04T20:26:59.015Z,10.75
2023-04-04T20:29:26.796Z,10.20
2023-04-04T20:31:55.478Z,10.30
2023-04-04T20:34:46.821Z,8.35
2023-04-04T20:37:24.134Z,11.38
2023-04-04T20:39:57.807Z,10.38
2023-04-04T20:42:30.494Z,9.30
2023-04-04T20:45:17.589Z,10.48
2023-04-04T20:47:51.836Z,11.45
2023-04-04T20:50:21.331Z,12.23
2023-04-04T20:52:52.863Z,8.25
2023-04-04T20:55:20.339Z,12.18
2023-04-04T20:57:47.329Z,11.25
2023-04-04T21:00:28.620Z,10.80
2023-04-04T21:03:09.284Z,14.77
2023-04-04T21:05:38.653Z,12.02
2023-04-04T21:08:42.823Z,11.95
2023-04-04T21:11:09.779Z,14.35
2023-04-04T21:13:38.457Z,11.63
2023-04-04T21:16:13.550Z,13.63
2023-04-04T21:18:41.531Z,12.32
2023-04-04T21:21:07.992Z,14.98
2023-04-04T21:23:41.552Z,9.25
2023-04-04T21:26:09.657Z,9.75
2023-04-04T21:28:38.047Z,10.50
2023-04-04T21:31:16.209Z,10.85
2023-04-04T21:33:47.732Z,14.73
2023-04-04T21:36:23.289Z,10.23
2023-04-04T21:38:51.293Z,9.15
2023-04-04T21:41:34.727Z,10.90
2023-04-04T21:44:06.520Z,10.68
2023-04-04T21:46:35.690Z,9.05
2023-04-04T21:49:03.099Z,9.55
2023-04-04T21:51:29.595Z,11.38
2023-04-04T21:53:57.314Z,9.02
2023-04-04T21:56:32.659Z,12.60
2023-04-04T21:59:04.251Z,12.20
2023-04-04T22:01:31.111Z,15.98
2023-04-04T22:03:58.518Z,23.95
2023-04-04T22:06:27.768Z,15.20
2023-04-04T22:08:55.933Z,14.73
2023-04-04T22:11:25.679Z,16.80
2023-04-04T22:13:52.459Z,16.65
2023-04-04T22:16:19.845Z,17.05
2023-04-04T22:18:47.795Z,19.85
2023-04-04T22:21:15.253Z,20.52
2023-04-04T22:23:42.216Z,14.07
2023-04-04T22:26:11.002Z,10.63
2023-04-04T22:28:38.478Z,14.70
2023-04-04T22:31:06.029Z,11.80
2023-04-04T22:33:33.826Z,11.70
2023-04-04T22:36:01.197Z,13.85
2023-04-04T22:38:28.265Z,14.93
2023-04-04T22:40:55.948Z,12.38
2023-04-04T22:43:22.591Z,10.00
2023-04-04T22:45:49.417Z,11.15
2023-04-04T22:48:15.863Z,10.32
2023-04-04T22:50:42.561Z,7.53
2023-04-04T22:53:12.793Z,14.50
2023-04-04T22:55:40.312Z,11.88
2023-04-04T22:58:07.450Z,8.95
2023-04-04T23:00:34.366Z,13.35
2023-04-04T23:03:02.071Z,10.13
2023-04-04T23:05:29.087Z,10.52
2023-04-04T23:07:55.560Z,10.35
2023-04-04T23:10:21.942Z,12.73
2023-04-04T23:12:48.336Z,12.70
2023-04-04T23:15:14.742Z,10.00
2023-04-04T23:17:41.330Z,11.60
2023-04-04T23:20:09.959Z,10.40
2023-04-04T23:22:37.729Z,12.68
2023-04-04T23:25:07.872Z,8.35
2023-04-04T23:27:34.672Z,8.70
2023-04-04T23:30:05.009Z,9.55
2023-04-04T23:32:32.008Z,9.45
2023-04-04T23:34:58.426Z,8.30
2023-04-04T23:37:24.836Z,9.82
2023-04-04T23:39:51.228Z,10.02
2023-04-04T23:42:17.604Z,12.43
2023-04-04T23:44:44.047Z,11.48
2023-04-04T23:47:10.821Z,11.25
2023-04-04T23:49:37.563Z,9.75
2023-04-04T23:52:05.956Z,10.63
2023-04-04T23:54:32.356Z,8.63
2023-04-04T23:56:58.786Z,13.27
2023-04-04T23:59:25.770Z,11.60
